sim
Sign-in with your pilot id or email,
or register
Callsign
Passwort

Schedule Details

Flight Number: RYR5476 (1)
Departure: Madrid Barajas Airport (LEMD) at 12:45
Arrival: Fuerteventura Airport (GCFV) at 15:30
Route: Ryanair Passenger Schedule. Enter filed route here before submitting Pirep.

Weather Information
Getting current METAR information for LEMD 160230Z 33003KT CAVOK 02/00 Q1027 NOSIG
Getting current METAR information for GCFV 160230Z AUTO 28005KT 9999 NCD 13/10 Q1018

Schedule Frequency

Route Map